Accueil
METAR-TAF:

METAR-TAF

Aéroports :

Aéroport du Grand Natal

Natal, Rio Grande do Norte, Brésil

latitude: 05-46-05S, longitude: 035-22-34W, altitude: 88 m

Observation

Le bulletin a été fait il y a 22 minutes, à 13:00 UTC
Vent 5 kt de est, variant entre est/nord-est et sud/sud-ouest
Température 30°C
Humidité 75%
Pression 1013 hPa
Visibilité 10 km ou plus
Nuages fragmentés à une hauteur de 2300 ft

METAR: SBSG 161300Z 10005KT 070V210 9999 BKN023 30/25 Q1013

Heure: 10:22 (13:22 UTC)

Prévision

Le bulletin a été fait il y a 3 heures et 22 minutes, à 10:00 UTC
Prévision valable du 16 à 12 UTC au 17 à 12 UTC
Vent 10 kt de sud-est
Visibilité 10 km ou plus
Nuages épars à une hauteur de 2500 ft
Evoluant progressivement
du 16 à 23 UTC au 16 à 24 UTC
Vent 5 kt de sud-est

TAF: SBSG 161000Z 1612/1712 14010KT 9999 SCT025 TX31/1615Z TN25/1708Z BECMG 1623/1624 14005KT RMK PEA

Observations et prévisions météorologiques de plus de 4000 aéroports (messages METAR et TAF).

Les stations disponibles sont représentées par des disques jaunes et rouges sur la carte.

Passer la souris dessus pour voir le nom de la station.

Cliquer dessus pour voir les observations et prévisions météorologiques.

Pour changer de carte: cliquez sur les boutons verts avec une croix noire pour zoomer, sur le bouton vert avec un tiret pour effectuer un zoom arrière, ou sur les flèches vertes pour les cartes adjacentes.


METAR-TAF: